Terminal Aerodrome Forecast
Issued by NWS Newport/Morehead City, NC

Home | Current Version | Previous Version | Text Only | Print | Product List | Glossary On
Versions: 1 2 3 4 5 6 7 8 9 10 11 12 13 14
000
FTUS42 KMHX 301700
TAFEWN
TAF
KEWN 301724Z 3018/3118 33014G26KT P6SM SCT060
      TEMPO 3018/3020 BKN060
     FM302300 31009G17KT P6SM SKC
     FM311000 34007KT P6SM SKC=

USA.gov is the U.S. government's official web portal to all federal, state and local government web resources and services.